createdAt,value
2022-11-08T00:00:39.321Z,8.19
2022-11-08T00:03:29.412Z,8.06
2022-11-08T00:06:35.452Z,8.00
2022-11-08T00:09:41.699Z,8.00
2022-11-08T00:12:48.088Z,7.94
2022-11-08T00:15:38.910Z,7.88
2022-11-08T00:18:26.727Z,7.88
2022-11-08T00:21:14.390Z,8.00
2022-11-08T00:24:01.983Z,8.13
2022-11-08T00:26:49.957Z,8.25
2022-11-08T00:29:37.706Z,8.31
2022-11-08T00:32:26.777Z,8.38
2022-11-08T00:35:14.906Z,8.50
2022-11-08T00:38:04.189Z,8.56
2022-11-08T00:40:51.938Z,8.56
2022-11-08T00:43:39.696Z,8.63
2022-11-08T00:46:27.828Z,8.63
2022-11-08T00:49:16.044Z,8.69
2022-11-08T00:52:04.433Z,8.81
2022-11-08T00:54:52.109Z,8.75
2022-11-08T00:57:58.452Z,8.63
2022-11-08T01:00:47.319Z,8.44
2022-11-08T01:03:35.402Z,8.38
2022-11-08T01:06:25.831Z,8.31
2022-11-08T01:09:14.114Z,8.38
2022-11-08T01:12:02.091Z,8.38
2022-11-08T01:14:49.900Z,8.25
2022-11-08T01:17:37.536Z,8.13
2022-11-08T01:20:25.337Z,8.06
2022-11-08T01:23:14.045Z,8.00
2022-11-08T01:26:09.209Z,8.00
2022-11-08T01:28:58.632Z,8.00
2022-11-08T01:31:46.165Z,7.94
2022-11-08T01:34:34.375Z,7.88
2022-11-08T01:37:21.972Z,7.88
2022-11-08T01:40:10.904Z,7.81
2022-11-08T01:42:58.811Z,7.75
2022-11-08T01:46:20.280Z,7.75
2022-11-08T01:49:20.865Z,7.75
2022-11-08T01:52:20.994Z,7.75
2022-11-08T01:55:14.697Z,7.75
2022-11-08T01:58:08.085Z,7.81
2022-11-08T02:00:58.108Z,7.81
2022-11-08T02:03:47.171Z,7.81
2022-11-08T02:06:38.424Z,7.81
2022-11-08T02:09:28.812Z,7.81
2022-11-08T02:12:21.802Z,7.81
2022-11-08T02:15:11.089Z,7.81
2022-11-08T02:17:59.089Z,7.81
2022-11-08T02:21:11.288Z,7.81
2022-11-08T02:24:08.332Z,7.75
2022-11-08T02:26:56.595Z,7.75
2022-11-08T02:29:44.278Z,7.75
2022-11-08T02:32:43.422Z,7.75
2022-11-08T02:35:31.047Z,7.75
2022-11-08T02:38:19.691Z,7.75
2022-11-08T02:41:08.935Z,7.75
2022-11-08T02:43:57.860Z,7.81
2022-11-08T02:46:45.336Z,7.81
2022-11-08T02:49:33.269Z,7.88
2022-11-08T02:52:21.002Z,7.88
2022-11-08T02:55:09.162Z,7.88
2022-11-08T02:57:57.433Z,7.94
2022-11-08T03:00:45.198Z,8.00
2022-11-08T03:03:33.016Z,8.06
2022-11-08T03:06:20.500Z,8.06
2022-11-08T03:09:08.492Z,8.13
2022-11-08T03:11:56.316Z,8.13
2022-11-08T03:14:44.415Z,8.19
2022-11-08T03:17:32.149Z,8.19
2022-11-08T03:20:19.981Z,8.25
2022-11-08T03:23:07.823Z,8.25
2022-11-08T03:25:55.982Z,8.31
2022-11-08T03:28:43.578Z,8.38
2022-11-08T03:31:31.439Z,8.38
2022-11-08T03:34:19.007Z,8.44
2022-11-08T03:37:09.693Z,8.44
2022-11-08T03:39:57.294Z,8.44
2022-11-08T03:42:45.456Z,8.50
2022-11-08T03:45:33.114Z,8.50
2022-11-08T03:48:23.564Z,8.56
2022-11-08T03:51:11.526Z,8.56
2022-11-08T03:53:59.381Z,8.63
2022-11-08T03:56:47.196Z,8.63
2022-11-08T03:59:35.274Z,8.63
2022-11-08T04:02:23.197Z,8.63
2022-11-08T04:05:13.302Z,8.69
2022-11-08T04:08:02.241Z,8.69
2022-11-08T04:10:49.829Z,8.69
2022-11-08T04:13:55.698Z,8.75
2022-11-08T04:16:43.743Z,8.75
2022-11-08T04:19:50.027Z,8.75
2022-11-08T04:22:38.616Z,8.75
2022-11-08T04:25:29.988Z,8.75
2022-11-08T04:28:20.250Z,8.75
2022-11-08T04:31:15.391Z,8.75
2022-11-08T04:34:03.910Z,8.75
2022-11-08T04:36:51.668Z,8.81
2022-11-08T04:39:39.471Z,8.88
2022-11-08T04:42:27.340Z,8.94
2022-11-08T04:45:15.403Z,8.94
2022-11-08T04:48:03.451Z,8.94
2022-11-08T04:50:51.334Z,9.00
2022-11-08T04:53:39.815Z,9.00
2022-11-08T04:56:30.495Z,9.00
2022-11-08T04:59:18.032Z,9.06
2022-11-08T05:02:06.076Z,9.06
2022-11-08T05:04:54.130Z,9.06
2022-11-08T05:07:41.550Z,9.06
2022-11-08T05:10:29.287Z,9.06
2022-11-08T05:13:17.117Z,9.06
2022-11-08T05:16:08.786Z,9.06
2022-11-08T05:18:56.908Z,9.13
2022-11-08T05:22:03.058Z,9.13
2022-11-08T05:24:50.675Z,9.13
2022-11-08T05:27:38.824Z,9.13
2022-11-08T05:30:26.526Z,9.13
2022-11-08T05:33:15.922Z,9.13
2022-11-08T05:36:06.722Z,9.13
2022-11-08T05:38:55.348Z,9.19
2022-11-08T05:41:43.239Z,9.19
2022-11-08T05:44:31.730Z,9.19
2022-11-08T05:47:19.352Z,9.19
2022-11-08T05:50:07.377Z,9.19
2022-11-08T05:52:55.234Z,9.19
2022-11-08T05:55:43.411Z,9.19
2022-11-08T05:58:34.389Z,9.19
2022-11-08T06:01:22.386Z,9.19
2022-11-08T06:04:10.181Z,9.13
2022-11-08T06:06:57.926Z,9.13
2022-11-08T06:09:45.857Z,9.13
2022-11-08T06:12:33.856Z,9.13
2022-11-08T06:15:22.464Z,9.13
2022-11-08T06:18:10.294Z,9.13
2022-11-08T06:20:59.656Z,9.13
2022-11-08T06:23:48.016Z,9.25
2022-11-08T06:26:35.573Z,9.31
2022-11-08T06:29:23.824Z,9.31
2022-11-08T06:32:11.860Z,9.38
2022-11-08T06:34:59.346Z,9.38
2022-11-08T06:37:47.373Z,9.38
2022-11-08T06:40:38.122Z,9.38
2022-11-08T06:43:26.573Z,9.44
2022-11-08T06:46:15.681Z,9.38
2022-11-08T06:49:03.279Z,9.38
2022-11-08T06:51:55.254Z,9.44
2022-11-08T06:54:45.204Z,9.44
2022-11-08T06:57:34.075Z,9.50
2022-11-08T07:00:22.427Z,9.63
2022-11-08T07:03:10.813Z,9.69
2022-11-08T07:06:01.551Z,9.75
2022-11-08T07:08:51.033Z,9.81
2022-11-08T07:11:39.079Z,9.88
2022-11-08T07:14:26.589Z,9.94
2022-11-08T07:17:16.170Z,10.00
2022-11-08T07:20:06.533Z,10.06
2022-11-08T07:22:59.232Z,10.06
2022-11-08T07:25:47.457Z,10.06
2022-11-08T07:28:35.762Z,10.19
2022-11-08T07:31:24.394Z,10.19
2022-11-08T07:34:12.284Z,10.25
2022-11-08T07:37:00.059Z,10.19
2022-11-08T07:39:48.006Z,10.31
2022-11-08T07:43:09.511Z,10.31
2022-11-08T07:45:58.066Z,10.44
2022-11-08T07:48:45.878Z,10.50
2022-11-08T07:51:33.878Z,10.63
2022-11-08T07:54:21.630Z,10.75
2022-11-08T07:57:09.446Z,10.81
2022-11-08T07:59:57.423Z,10.88
2022-11-08T08:02:45.044Z,10.88
2022-11-08T08:05:59.515Z,11.06
2022-11-08T08:08:49.062Z,11.13
2022-11-08T08:11:37.397Z,11.19
2022-11-08T08:14:26.730Z,11.19
2022-11-08T08:17:14.622Z,11.19
2022-11-08T08:20:02.572Z,11.25
2022-11-08T08:22:52.430Z,11.38
2022-11-08T08:25:40.402Z,11.56
2022-11-08T08:28:28.223Z,11.81
2022-11-08T08:31:16.152Z,12.00
2022-11-08T08:34:04.279Z,12.31
2022-11-08T08:36:52.051Z,12.63
2022-11-08T08:39:40.195Z,13.19
2022-11-08T08:42:28.144Z,14.44
2022-11-08T08:45:16.014Z,15.81
2022-11-08T08:48:04.815Z,16.81
2022-11-08T08:50:52.706Z,16.00
2022-11-08T08:53:40.473Z,16.69
2022-11-08T08:56:28.396Z,19.00
2022-11-08T09:02:23.673Z,16.75
2022-11-08T09:05:13.722Z,17.13
2022-11-08T09:08:01.650Z,19.00
2022-11-08T09:10:54.799Z,19.56
2022-11-08T09:13:42.362Z,18.44
2022-11-08T09:16:30.270Z,17.88
2022-11-08T09:19:18.568Z,17.50
2022-11-08T09:22:06.242Z,18.13
2022-11-08T09:24:53.821Z,18.31
2022-11-08T09:27:41.955Z,19.19
2022-11-08T09:30:30.057Z,18.88
2022-11-08T09:33:18.315Z,19.06
2022-11-08T09:36:09.387Z,18.56
2022-11-08T09:38:57.492Z,19.38
2022-11-08T09:41:51.418Z,22.50
2022-11-08T09:45:10.280Z,25.13
2022-11-08T09:48:05.299Z,25.88
2022-11-08T09:50:57.689Z,24.25
2022-11-08T09:54:04.322Z,22.56
2022-11-08T09:56:54.438Z,19.81
2022-11-08T09:59:49.365Z,18.50
2022-11-08T10:02:37.152Z,18.75
2022-11-08T10:05:35.042Z,20.56
2022-11-08T10:08:36.911Z,22.31
2022-11-08T10:11:57.783Z,22.06
2022-11-08T10:15:06.970Z,21.44
2022-11-08T10:18:19.665Z,21.13
2022-11-08T10:21:19.205Z,20.25
2022-11-08T10:24:26.869Z,20.19
2022-11-08T10:27:40.503Z,21.56
2022-11-08T10:30:35.452Z,21.13
2022-11-08T10:33:56.349Z,21.00
2022-11-08T10:36:47.778Z,22.63
2022-11-08T10:39:43.381Z,22.44
2022-11-08T10:43:20.727Z,23.38
2022-11-08T10:46:39.953Z,23.69
2022-11-08T10:49:28.473Z,23.88
2022-11-08T10:52:25.479Z,24.13
2022-11-08T10:55:38.629Z,23.63
2022-11-08T10:58:41.053Z,23.00
2022-11-08T11:01:28.938Z,23.06
2022-11-08T11:04:34.999Z,22.69
2022-11-08T11:08:26.581Z,22.56
2022-11-08T11:11:32.299Z,23.56
2022-11-08T11:14:25.977Z,23.38
2022-11-08T11:20:23.191Z,22.69
2022-11-08T11:23:11.841Z,22.63
2022-11-08T11:25:59.982Z,22.63
2022-11-08T11:29:05.973Z,23.31
2022-11-08T11:31:54.635Z,25.38
2022-11-08T11:35:04.413Z,27.19
2022-11-08T11:37:54.349Z,26.88
2022-11-08T11:40:47.274Z,27.13
2022-11-08T11:43:46.866Z,27.31
2022-11-08T11:46:55.286Z,26.50
2022-11-08T11:49:47.881Z,26.75
2022-11-08T11:52:35.587Z,26.69
2022-11-08T11:55:42.059Z,25.94
2022-11-08T11:59:06.894Z,26.00
2022-11-08T12:02:43.627Z,26.00
2022-11-08T12:06:12.178Z,25.13
2022-11-08T12:09:11.656Z,23.88
2022-11-08T12:12:18.399Z,21.56
2022-11-08T12:15:28.113Z,20.13
2022-11-08T12:18:55.347Z,19.56
2022-11-08T12:22:07.877Z,19.69
2022-11-08T12:25:11.307Z,19.25
2022-11-08T12:28:19.852Z,18.38
2022-11-08T12:31:25.634Z,17.50
2022-11-08T12:34:28.890Z,17.25
2022-11-08T12:37:59.303Z,17.25
2022-11-08T12:41:34.667Z,16.94
2022-11-08T12:44:45.568Z,16.56
2022-11-08T12:48:07.045Z,16.19
2022-11-08T12:51:24.164Z,15.94
2022-11-08T12:54:20.604Z,15.75
2022-11-08T12:57:16.598Z,15.31
2022-11-08T13:00:17.405Z,15.13
2022-11-08T13:03:11.445Z,15.06
2022-11-08T13:06:15.252Z,14.50
2022-11-08T13:09:31.951Z,14.25
2022-11-08T13:12:22.173Z,14.13
2022-11-08T13:15:25.276Z,14.06
2022-11-08T13:18:22.538Z,13.88
2022-11-08T13:21:42.218Z,13.75
2022-11-08T13:24:49.544Z,13.69
2022-11-08T13:27:46.049Z,13.63
2022-11-08T13:30:38.749Z,13.56
2022-11-08T13:33:32.050Z,13.44
2022-11-08T13:36:47.458Z,13.38
2022-11-08T13:39:41.511Z,13.25
2022-11-08T13:42:31.794Z,13.19
2022-11-08T13:45:35.596Z,13.19
2022-11-08T13:48:41.948Z,13.19
2022-11-08T13:51:30.612Z,13.25
2022-11-08T13:54:24.141Z,13.25
2022-11-08T13:57:20.219Z,13.31
2022-11-08T14:00:30.082Z,13.31
2022-11-08T14:03:32.966Z,13.31
2022-11-08T14:06:41.510Z,13.25
2022-11-08T14:09:44.151Z,13.19
2022-11-08T14:12:49.831Z,13.00
2022-11-08T14:15:58.672Z,12.88
2022-11-08T14:18:46.807Z,12.75
2022-11-08T14:21:35.190Z,12.63
2022-11-08T14:24:28.100Z,12.50
2022-11-08T14:27:33.967Z,12.38
2022-11-08T14:30:24.347Z,12.25
2022-11-08T14:33:19.916Z,12.13
2022-11-08T14:36:15.214Z,12.00
2022-11-08T14:39:17.590Z,11.88
2022-11-08T14:42:18.611Z,11.69
2022-11-08T14:45:15.132Z,11.63
2022-11-08T14:48:05.025Z,11.50
2022-11-08T14:51:06.418Z,11.44
2022-11-08T14:53:55.346Z,11.38
2022-11-08T14:56:43.604Z,11.31
2022-11-08T14:59:31.213Z,11.25
2022-11-08T15:02:19.348Z,11.19
2022-11-08T15:05:25.079Z,11.06
2022-11-08T15:08:35.865Z,11.00
2022-11-08T15:11:35.442Z,10.94
2022-11-08T15:14:27.819Z,10.81
2022-11-08T15:17:37.299Z,10.81
2022-11-08T15:20:24.941Z,10.69
2022-11-08T15:23:34.774Z,10.63
2022-11-08T15:26:31.125Z,10.56
2022-11-08T15:29:19.968Z,10.50
2022-11-08T15:32:20.564Z,10.50
2022-11-08T15:35:23.988Z,10.44
2022-11-08T15:38:48.729Z,10.38
2022-11-08T15:41:41.572Z,10.31
2022-11-08T15:44:30.168Z,10.31
2022-11-08T15:47:42.142Z,10.31
2022-11-08T15:50:32.229Z,10.25
2022-11-08T15:53:20.785Z,10.19
2022-11-08T15:56:12.421Z,10.13
2022-11-08T15:59:00.437Z,10.06
2022-11-08T16:02:01.061Z,10.06
2022-11-08T16:05:02.609Z,10.00
2022-11-08T16:07:56.282Z,10.00
2022-11-08T16:10:53.028Z,9.94
2022-11-08T16:13:40.869Z,9.88
2022-11-08T16:16:34.936Z,9.81
2022-11-08T16:19:25.262Z,9.81
2022-11-08T16:22:18.981Z,9.75
2022-11-08T16:25:12.118Z,9.75
2022-11-08T16:28:08.349Z,9.75
2022-11-08T16:30:57.827Z,9.69
2022-11-08T16:33:47.818Z,9.75
2022-11-08T16:36:35.722Z,9.63
2022-11-08T16:39:27.974Z,9.56
2022-11-08T16:42:15.785Z,9.56
2022-11-08T16:45:03.901Z,9.56
2022-11-08T16:47:52.234Z,9.56
2022-11-08T16:50:40.494Z,9.56
2022-11-08T16:53:29.683Z,9.56
2022-11-08T16:56:19.009Z,9.50
2022-11-08T16:59:06.906Z,9.50
2022-11-08T17:01:55.112Z,9.50
2022-11-08T17:04:42.974Z,9.50
2022-11-08T17:07:30.880Z,9.56
2022-11-08T17:10:23.087Z,9.56
2022-11-08T17:13:16.353Z,9.56
2022-11-08T17:16:04.911Z,9.56
2022-11-08T17:18:58.351Z,9.63
2022-11-08T17:21:46.078Z,9.56
2022-11-08T17:24:33.915Z,9.50
2022-11-08T17:27:21.755Z,9.50
2022-11-08T17:30:11.996Z,9.44
2022-11-08T17:33:00.361Z,9.50
2022-11-08T17:35:47.915Z,9.50
2022-11-08T17:38:38.462Z,9.50
2022-11-08T17:41:26.516Z,9.50
2022-11-08T17:44:14.799Z,9.50
2022-11-08T17:47:02.652Z,9.44
2022-11-08T17:49:51.800Z,9.38
2022-11-08T17:52:40.721Z,9.38
2022-11-08T17:55:28.510Z,9.31
2022-11-08T17:58:16.497Z,9.25
2022-11-08T18:01:07.299Z,9.25
2022-11-08T18:03:55.869Z,9.25
2022-11-08T18:06:44.210Z,9.25
2022-11-08T18:09:32.322Z,9.25
2022-11-08T18:12:20.364Z,9.31
2022-11-08T18:15:08.934Z,9.38
2022-11-08T18:17:56.642Z,9.44
2022-11-08T18:20:45.680Z,9.50
2022-11-08T18:23:34.052Z,9.50
2022-11-08T18:26:21.871Z,9.56
2022-11-08T18:29:09.774Z,9.56
2022-11-08T18:31:58.955Z,9.63
2022-11-08T18:34:46.643Z,9.69
2022-11-08T18:37:34.426Z,9.69
2022-11-08T18:40:22.871Z,9.75
2022-11-08T18:43:10.695Z,9.81
2022-11-08T18:46:06.693Z,9.75
2022-11-08T18:48:55.389Z,9.75
2022-11-08T18:51:43.209Z,9.75
2022-11-08T18:54:31.133Z,9.75
2022-11-08T18:57:19.959Z,9.75
2022-11-08T19:00:09.337Z,9.75
2022-11-08T19:02:57.664Z,9.75
2022-11-08T19:05:47.461Z,9.69
2022-11-08T19:08:37.016Z,9.63
2022-11-08T19:11:24.948Z,9.63
2022-11-08T19:14:13.219Z,9.63
2022-11-08T19:17:01.907Z,9.63
2022-11-08T19:19:50.260Z,9.75
2022-11-08T19:22:38.236Z,9.81
2022-11-08T19:25:27.404Z,9.88
2022-11-08T19:28:20.946Z,9.88
2022-11-08T19:31:27.279Z,9.94
2022-11-08T19:34:15.236Z,9.94
2022-11-08T19:37:04.097Z,10.00
2022-11-08T19:39:52.323Z,9.94
2022-11-08T19:42:40.823Z,9.94
2022-11-08T19:45:31.964Z,9.88
2022-11-08T19:48:31.534Z,9.88
2022-11-08T19:51:29.226Z,9.81
2022-11-08T19:54:17.493Z,9.81
2022-11-08T19:57:06.342Z,9.81
2022-11-08T19:59:54.593Z,9.81
2022-11-08T20:02:42.607Z,9.81
2022-11-08T20:05:40.576Z,9.81
2022-11-08T20:08:42.445Z,9.75
2022-11-08T20:11:35.399Z,9.69
2022-11-08T20:14:23.325Z,9.69
2022-11-08T20:17:11.432Z,9.69
2022-11-08T20:20:12.032Z,9.69
2022-11-08T20:23:01.189Z,9.69
2022-11-08T20:25:49.463Z,9.69
2022-11-08T20:28:41.734Z,9.63
2022-11-08T20:31:31.056Z,9.69
2022-11-08T20:34:25.792Z,9.75
2022-11-08T20:37:14.762Z,9.75
2022-11-08T20:40:02.837Z,9.75
2022-11-08T20:42:51.256Z,9.81
2022-11-08T20:45:40.329Z,9.75
2022-11-08T20:48:28.828Z,9.69
2022-11-08T20:51:21.587Z,9.63
2022-11-08T20:54:11.730Z,9.63
2022-11-08T20:56:59.511Z,9.56
2022-11-08T20:59:47.565Z,9.50
2022-11-08T21:02:35.489Z,9.50
2022-11-08T21:05:23.470Z,9.50
2022-11-08T21:11:21.532Z,9.63
2022-11-08T21:14:09.775Z,9.69
2022-11-08T21:20:07.169Z,9.75
2022-11-08T21:22:57.057Z,9.75
2022-11-08T21:25:46.656Z,9.75
2022-11-08T21:28:36.752Z,9.69
2022-11-08T21:31:24.988Z,9.75
2022-11-08T21:34:13.468Z,9.75
2022-11-08T21:37:01.780Z,9.75
2022-11-08T21:39:49.669Z,9.75
2022-11-08T21:42:51.822Z,9.81
2022-11-08T21:45:40.690Z,9.88
2022-11-08T21:48:29.009Z,9.88
2022-11-08T21:51:18.020Z,9.88
2022-11-08T21:54:07.458Z,9.94
2022-11-08T21:56:55.004Z,10.00
2022-11-08T21:59:42.872Z,10.00
2022-11-08T22:02:30.627Z,10.06
2022-11-08T22:05:18.814Z,10.06
2022-11-08T22:08:06.317Z,10.13
2022-11-08T22:10:54.405Z,10.19
2022-11-08T22:13:41.819Z,10.19
2022-11-08T22:16:29.377Z,10.19
2022-11-08T22:19:17.149Z,10.25
2022-11-08T22:22:05.431Z,10.25
2022-11-08T22:24:53.138Z,10.19
2022-11-08T22:27:40.589Z,10.19
2022-11-08T22:30:28.388Z,10.19
2022-11-08T22:33:15.925Z,10.25
2022-11-08T22:36:03.705Z,10.25
2022-11-08T22:38:51.110Z,10.31
2022-11-08T22:41:39.096Z,10.31
2022-11-08T22:44:27.079Z,10.25
2022-11-08T22:47:15.557Z,10.19
2022-11-08T22:50:04.045Z,10.19
2022-11-08T22:52:52.107Z,10.19
2022-11-08T22:55:39.526Z,10.13
2022-11-08T22:58:31.808Z,10.13
2022-11-08T23:01:19.454Z,10.13
2022-11-08T23:04:06.988Z,10.13
2022-11-08T23:06:54.858Z,10.13
2022-11-08T23:09:42.617Z,10.13
2022-11-08T23:12:48.847Z,10.19
2022-11-08T23:15:55.363Z,10.13
2022-11-08T23:19:02.971Z,10.13
2022-11-08T23:22:10.683Z,10.19
2022-11-08T23:24:58.524Z,10.19
2022-11-08T23:28:04.486Z,10.19
2022-11-08T23:31:10.960Z,10.25
2022-11-08T23:33:59.307Z,10.25
2022-11-08T23:36:47.422Z,10.25
2022-11-08T23:39:54.980Z,10.31
2022-11-08T23:43:01.489Z,10.31
2022-11-08T23:45:50.248Z,10.25
2022-11-08T23:48:40.280Z,10.19
2022-11-08T23:51:28.886Z,10.19
2022-11-08T23:54:17.065Z,10.19
2022-11-08T23:57:05.081Z,10.19
2022-11-08T23:59:52.784Z,10.13
